Hales Location, NH

8:57 PM EST on March 01, 2015 (GMT -0500)
Laconia Municipal | Change Station
CLOSE
Current Station
Airport
Location: Laconia,
Elevation: 545 ft
Nearby Weather Stations

Elev 545 ft 43.57 °N, 71.42 °W | Updated 22 minutes ago

Snow
Snow
23 °F
Feels Like 15 °F
N
7
Wind Variable Wind from SW

Today
High -- | Low -- °F
--% Chance of Precip.
Yesterday
High -- | Low -- °F
Precip. -- in
6:21 AM 5:32 PM
Waxing Gibbous, 88% visible
Pressure 30.17 in
Visibility 2.0 miles
Clouds Overcast 1400 ft
Windchill 15 °F
Dew Point 19 °F
Humidity 86%
Rainfall 0.00 in
Snow Depth Not available.
UV 0 out of 12
Pollen .30 out of 12
Air Quality Not available.
Flu Activity Not available.
METAR KLCI 020135Z AUTO 22006KT 2SM OVC014 M05/M07 A3017 RMK AO1

More Conditions Fewer Conditions

Pressure 30.17 in
Visibility 2.0 miles
Clouds Overcast 1400 ft
Windchill 15 °F
Dew Point 19 °F
Humidity 86%
Rainfall 0.00 in
Snow Depth Not available.
UV 0 out of 12
Pollen .30 out of 12
Air Quality Not available.
Flu Activity Not available.
METAR KLCI 020135Z AUTO 22006KT 2SM OVC014 M05/M07 A3017 RMK AO1

More Conditions Fewer Conditions

10-Day Weather Forecast

Almanac

Astronomy

Mar. 01, 2015 Rise Set
Actual Time
Civil Twilight
Nautical Twilight
Astronomical Twilight
Moon
Length of Visible Light
Length of Day
Tomorrow will be .
, % of the Moon is Illuminated

Today's Extremes

State Highs State Lows

Community

WunderPhotos

Upload Photos

1,801,677 photos uploaded!

WunderBlogs® & News

Nearby

Air Quality

  Air Quality AQ Index Pollutant
Not available.

Snow Depth

Station Depth Elevation

Earthquake Activity

City Distance Mag. Time & Date
Minimum magnitude displayed is 2.5.

Coastal Water Temperatures

Place Temperature

Nearby Weather Stations